createdAt,value
2024-03-02T00:01:45.875Z,99.35
2024-03-02T00:04:47.852Z,98.85
2024-03-02T00:08:00.057Z,102.57
2024-03-02T00:11:03.133Z,98.45
2024-03-02T00:17:11.007Z,103.07
2024-03-02T00:20:24.440Z,101.82
2024-03-02T00:23:31.131Z,102.40
2024-03-02T00:26:33.203Z,101.13
2024-03-02T00:29:36.521Z,100.00
2024-03-02T00:32:38.513Z,101.57
2024-03-02T00:35:40.622Z,100.78
2024-03-02T00:38:50.930Z,102.63
2024-03-02T00:41:52.959Z,105.22
2024-03-02T00:44:54.980Z,100.65
2024-03-02T00:47:57.337Z,100.50
2024-03-02T00:50:59.411Z,101.25
2024-03-02T00:54:07.882Z,102.00
2024-03-02T00:57:12.285Z,101.88
2024-03-02T01:00:15.066Z,102.50
2024-03-02T01:03:17.135Z,101.35
2024-03-02T01:06:19.845Z,102.05
2024-03-02T01:09:21.929Z,100.05
2024-03-02T01:12:23.977Z,103.22
2024-03-02T01:15:26.006Z,101.32
2024-03-02T01:18:28.302Z,102.13
2024-03-02T01:21:32.591Z,100.97
2024-03-02T01:24:34.681Z,102.25
2024-03-02T01:27:36.864Z,100.00
2024-03-02T01:30:38.943Z,105.07
2024-03-02T01:33:40.968Z,102.57
2024-03-02T01:36:45.450Z,99.65
2024-03-02T01:39:47.451Z,102.65
2024-03-02T01:42:49.474Z,101.70
2024-03-02T01:45:51.575Z,99.57
2024-03-02T01:48:53.663Z,100.00
2024-03-02T01:51:56.042Z,102.00
2024-03-02T01:54:58.275Z,104.40
2024-03-02T01:58:00.579Z,100.90
2024-03-02T02:01:03.012Z,100.47
2024-03-02T02:04:05.160Z,101.10
2024-03-02T02:07:07.507Z,98.60
2024-03-02T02:10:10.248Z,103.78
2024-03-02T02:13:12.322Z,98.13
2024-03-02T02:16:14.358Z,101.63
2024-03-02T02:19:16.361Z,100.47
2024-03-02T02:22:18.489Z,99.32
2024-03-02T02:25:20.505Z,101.03
2024-03-02T02:28:22.504Z,102.78
2024-03-02T02:31:24.601Z,101.70
2024-03-02T02:34:26.529Z,101.55
2024-03-02T02:37:28.639Z,99.13
2024-03-02T02:40:30.946Z,100.32
2024-03-02T02:43:33.008Z,101.63
2024-03-02T02:46:35.023Z,100.72
2024-03-02T02:49:37.005Z,103.30
2024-03-02T02:52:41.609Z,101.30
2024-03-02T02:55:43.802Z,98.28
2024-03-02T02:58:45.785Z,103.32
2024-03-02T03:01:48.014Z,100.93
2024-03-02T03:04:50.089Z,101.07
2024-03-02T03:07:52.092Z,102.03
2024-03-02T03:10:54.273Z,101.75
2024-03-02T03:13:56.304Z,99.25
2024-03-02T03:16:58.316Z,100.22
2024-03-02T03:20:00.360Z,99.70
2024-03-02T03:23:02.394Z,100.95
2024-03-02T03:26:04.513Z,100.03
2024-03-02T03:29:06.529Z,101.15
2024-03-02T03:32:08.650Z,100.78
2024-03-02T03:35:10.802Z,102.15
2024-03-02T03:38:12.946Z,101.03
2024-03-02T03:41:14.971Z,99.93
2024-03-02T03:44:17.043Z,102.05
2024-03-02T03:47:19.321Z,109.88
2024-03-02T03:50:21.531Z,101.50
2024-03-02T03:53:23.824Z,101.32
2024-03-02T03:56:25.822Z,101.88
2024-03-02T03:59:27.744Z,104.22
2024-03-02T04:02:29.772Z,106.47
2024-03-02T04:05:31.712Z,101.93
2024-03-02T04:08:33.709Z,100.85
2024-03-02T04:11:35.674Z,102.40
2024-03-02T04:14:37.636Z,105.63
2024-03-02T04:17:39.659Z,102.03
2024-03-02T04:20:41.722Z,103.78
2024-03-02T04:23:43.648Z,103.45
2024-03-02T04:26:45.647Z,101.00
2024-03-02T04:29:48.309Z,102.15
2024-03-02T04:32:50.342Z,100.70
2024-03-02T04:35:52.381Z,100.93
2024-03-02T04:38:54.584Z,100.00
2024-03-02T04:41:56.700Z,101.43
2024-03-02T04:44:58.683Z,100.05
2024-03-02T04:48:00.681Z,103.00
2024-03-02T04:51:02.738Z,103.30
2024-03-02T04:54:04.707Z,100.43
2024-03-02T04:57:06.700Z,101.18
2024-03-02T05:00:09.314Z,101.68
2024-03-02T05:03:11.290Z,102.80
2024-03-02T05:06:13.473Z,101.95
2024-03-02T05:09:15.452Z,102.82
2024-03-02T05:12:17.472Z,101.35
2024-03-02T05:15:19.607Z,100.88
2024-03-02T05:18:21.690Z,101.60
2024-03-02T05:21:23.734Z,103.18
2024-03-02T05:24:25.947Z,101.78
2024-03-02T05:27:31.499Z,103.55
2024-03-02T05:30:33.590Z,101.82
2024-03-02T05:33:35.693Z,102.90
2024-03-02T05:36:37.863Z,102.75
2024-03-02T05:39:39.860Z,105.15
2024-03-02T05:42:41.939Z,104.00
2024-03-02T05:45:43.931Z,102.45
2024-03-02T05:48:45.988Z,101.68
2024-03-02T05:51:48.074Z,102.25
2024-03-02T05:54:50.122Z,102.25
2024-03-02T05:57:52.277Z,101.47
2024-03-02T06:00:54.403Z,101.68
2024-03-02T06:03:57.581Z,102.03
2024-03-02T06:10:01.908Z,103.47
2024-03-02T06:13:04.067Z,103.25
2024-03-02T06:16:06.568Z,101.95
2024-03-02T06:19:09.112Z,100.97
2024-03-02T06:22:11.762Z,101.45
2024-03-02T06:25:13.925Z,101.60
2024-03-02T06:28:15.938Z,106.13
2024-03-02T06:31:17.943Z,100.60
2024-03-02T06:34:19.919Z,103.32
2024-03-02T06:37:21.946Z,104.32
2024-03-02T06:40:23.966Z,103.60
2024-03-02T06:43:26.587Z,102.00
2024-03-02T06:46:28.601Z,104.13
2024-03-02T06:49:30.714Z,104.18
2024-03-02T06:52:32.654Z,102.65
2024-03-02T06:55:35.253Z,104.38
2024-03-02T06:58:37.383Z,103.32
2024-03-02T07:01:39.472Z,104.53
2024-03-02T07:04:41.463Z,104.40
2024-03-02T07:07:43.497Z,104.95
2024-03-02T07:10:45.823Z,106.22
2024-03-02T07:13:48.262Z,105.30
2024-03-02T07:16:50.256Z,106.03
2024-03-02T07:19:55.062Z,107.93
2024-03-02T07:22:57.890Z,109.80
2024-03-02T07:29:04.753Z,111.20
2024-03-02T07:32:07.509Z,109.18
2024-03-02T07:35:09.666Z,109.07
2024-03-02T07:38:11.796Z,111.15
2024-03-02T07:41:14.212Z,112.43
2024-03-02T07:44:16.477Z,103.22
2024-03-02T07:47:18.698Z,101.97
2024-03-02T07:50:20.700Z,95.55
2024-03-02T07:53:22.647Z,96.55
2024-03-02T07:56:24.674Z,92.70
2024-03-02T07:59:26.790Z,87.68
2024-03-02T08:02:28.857Z,85.55
2024-03-02T08:08:33.302Z,79.90
2024-03-02T08:11:35.350Z,74.38
2024-03-02T08:14:37.405Z,69.72
2024-03-02T08:17:40.258Z,68.18
2024-03-02T08:20:42.459Z,64.47
2024-03-02T08:23:45.204Z,62.22
2024-03-02T08:26:48.541Z,61.03
2024-03-02T08:29:50.537Z,57.58
2024-03-02T08:32:53.355Z,54.58
2024-03-02T08:35:55.362Z,46.28
2024-03-02T08:38:57.374Z,32.25
2024-03-02T08:42:00.100Z,18.45
2024-03-02T08:45:02.445Z,10.43
2024-03-02T08:48:04.940Z,8.05
2024-03-02T08:51:06.998Z,7.55
2024-03-02T08:54:09.606Z,7.07
2024-03-02T08:57:11.929Z,11.00
2024-03-02T09:00:14.168Z,8.10
2024-03-02T09:03:16.223Z,8.07
2024-03-02T09:06:19.020Z,9.32
2024-03-02T09:09:21.302Z,12.60
2024-03-02T09:15:25.504Z,26.27
2024-03-02T09:18:27.525Z,23.55
2024-03-02T09:21:29.456Z,21.90
2024-03-02T09:24:31.700Z,18.83
2024-03-02T09:27:33.898Z,18.90
2024-03-02T09:30:36.036Z,17.45
2024-03-02T09:33:38.147Z,16.42
2024-03-02T09:36:40.225Z,14.13
2024-03-02T09:39:45.127Z,15.05
2024-03-02T09:42:47.915Z,12.43
2024-03-02T09:45:52.751Z,11.15
2024-03-02T09:48:54.841Z,9.43
2024-03-02T09:51:57.510Z,8.77
2024-03-02T09:54:59.507Z,7.28
2024-03-02T09:58:01.501Z,7.47
2024-03-02T10:01:06.940Z,5.68
2024-03-02T10:04:09.706Z,5.07
2024-03-02T10:07:16.352Z,7.93
2024-03-02T10:10:18.428Z,6.95
2024-03-02T10:13:20.433Z,5.03
2024-03-02T10:16:22.426Z,5.13
2024-03-02T10:19:25.318Z,4.82
2024-03-02T10:22:27.286Z,5.93
2024-03-02T10:28:47.822Z,5.15
2024-03-02T10:31:49.987Z,6.20
2024-03-02T10:37:55.022Z,4.82
2024-03-02T10:40:59.159Z,8.25
2024-03-02T10:44:04.203Z,4.28
2024-03-02T10:47:07.000Z,6.22
2024-03-02T10:50:09.532Z,5.47
2024-03-02T10:53:11.774Z,3.55
2024-03-02T10:56:22.671Z,5.40
2024-03-02T10:59:28.521Z,5.75
2024-03-02T11:02:33.831Z,4.63
2024-03-02T11:05:39.882Z,6.63
2024-03-02T11:08:44.234Z,5.07
2024-03-02T11:11:50.991Z,5.35
2024-03-02T11:14:53.139Z,5.45
2024-03-02T11:20:58.324Z,4.75
2024-03-02T11:24:00.373Z,5.95
2024-03-02T11:27:04.319Z,4.88
2024-03-02T11:30:09.099Z,5.38
2024-03-02T11:33:13.081Z,4.53
2024-03-02T11:36:17.165Z,4.30
2024-03-02T11:39:19.798Z,5.15
2024-03-02T11:42:21.862Z,5.13
2024-03-02T11:45:25.419Z,7.03
2024-03-02T11:48:27.921Z,4.07
2024-03-02T12:03:27.482Z,6.10
2024-03-02T12:06:30.551Z,4.25
2024-03-02T12:09:32.612Z,4.47
2024-03-02T12:12:34.587Z,5.85
2024-03-02T12:15:39.237Z,5.43
2024-03-02T12:18:43.393Z,5.75
2024-03-02T12:21:45.457Z,6.30
2024-03-02T12:24:48.061Z,6.38
2024-03-02T12:27:56.311Z,6.95
2024-03-02T12:30:58.954Z,5.53
2024-03-02T12:34:01.250Z,5.90
2024-03-02T12:37:03.327Z,4.78
2024-03-02T12:40:05.896Z,4.25
2024-03-02T12:43:08.077Z,3.78
2024-03-02T12:49:14.624Z,5.43
2024-03-02T12:52:17.063Z,5.13
2024-03-02T12:55:22.645Z,5.63
2024-03-02T12:58:25.004Z,5.05
2024-03-02T13:01:27.384Z,5.57
2024-03-02T13:07:32.130Z,6.40
2024-03-02T13:10:35.118Z,6.40
2024-03-02T13:13:37.187Z,6.00
2024-03-02T13:16:47.494Z,5.85
2024-03-02T13:19:58.610Z,5.25
2024-03-02T13:23:00.597Z,6.05
2024-03-02T13:26:03.006Z,4.60
2024-03-02T13:29:05.041Z,4.30
2024-03-02T13:32:07.238Z,4.13
2024-03-02T13:38:11.231Z,6.95
2024-03-02T13:41:13.263Z,6.28
2024-03-02T13:44:15.244Z,7.05
2024-03-02T13:47:17.219Z,6.57
2024-03-02T13:50:20.083Z,5.40
2024-03-02T13:53:22.645Z,7.75
2024-03-02T13:56:24.938Z,6.60
2024-03-02T13:59:27.318Z,7.43
2024-03-02T14:02:29.322Z,5.78
2024-03-02T14:05:31.310Z,6.57
2024-03-02T14:08:33.259Z,8.98
2024-03-02T14:11:35.757Z,6.82
2024-03-02T14:14:37.692Z,7.03
2024-03-02T14:17:40.314Z,7.35
2024-03-02T14:20:43.205Z,7.40
2024-03-02T14:23:45.251Z,8.52
2024-03-02T14:26:47.248Z,7.88
2024-03-02T14:29:49.430Z,7.90
2024-03-02T14:32:51.570Z,7.72
2024-03-02T14:35:53.792Z,7.43
2024-03-02T14:38:56.046Z,8.52
2024-03-02T14:41:57.959Z,10.93
2024-03-02T14:44:59.910Z,11.40
2024-03-02T14:48:02.221Z,10.52
2024-03-02T14:54:06.638Z,20.33
2024-03-02T15:00:11.141Z,26.15
2024-03-02T15:03:13.374Z,17.95
2024-03-02T15:06:15.429Z,15.82
2024-03-02T15:09:17.402Z,14.65
2024-03-02T15:12:19.486Z,16.27
2024-03-02T15:15:21.494Z,16.17
2024-03-02T15:18:23.605Z,15.60
2024-03-02T15:21:25.820Z,16.58
2024-03-02T15:24:27.951Z,17.13
2024-03-02T15:27:30.141Z,16.73
2024-03-02T15:30:32.398Z,19.35
2024-03-02T15:33:34.911Z,18.45
2024-03-02T15:36:36.953Z,19.67
2024-03-02T15:39:39.209Z,22.15
2024-03-02T15:42:41.286Z,20.50
2024-03-02T15:45:43.614Z,23.42
2024-03-02T15:48:45.677Z,26.33
2024-03-02T15:51:47.803Z,25.30
2024-03-02T15:54:50.696Z,22.23
2024-03-02T15:57:53.122Z,24.50
2024-03-02T16:00:55.286Z,26.35
2024-03-02T16:03:57.563Z,26.20
2024-03-02T16:06:59.643Z,28.27
2024-03-02T16:10:01.892Z,28.77
2024-03-02T16:13:03.956Z,30.30
2024-03-02T16:16:06.380Z,28.98
2024-03-02T16:19:16.603Z,31.92
2024-03-02T16:22:24.194Z,33.60
2024-03-02T16:25:26.362Z,32.38
2024-03-02T16:28:28.437Z,33.08
2024-03-02T16:31:30.439Z,33.50
2024-03-02T16:34:32.458Z,32.63
2024-03-02T16:37:34.560Z,35.03
2024-03-02T16:40:36.609Z,38.40
2024-03-02T16:43:38.979Z,39.60
2024-03-02T16:46:41.265Z,39.38
2024-03-02T16:49:46.259Z,39.50
2024-03-02T16:52:48.220Z,40.45
2024-03-02T16:55:50.230Z,40.95
2024-03-02T16:58:52.580Z,43.25
2024-03-02T17:01:54.701Z,41.83
2024-03-02T17:04:56.736Z,40.65
2024-03-02T17:07:58.698Z,42.13
2024-03-02T17:11:00.877Z,41.45
2024-03-02T17:14:02.910Z,43.22
2024-03-02T17:17:05.137Z,43.08
2024-03-02T17:20:07.892Z,44.17
2024-03-02T17:23:10.021Z,44.08
2024-03-02T17:26:12.054Z,44.03
2024-03-02T17:29:14.025Z,47.58
2024-03-02T17:32:16.068Z,44.67
2024-03-02T17:35:18.085Z,46.05
2024-03-02T17:38:20.319Z,47.58
2024-03-02T17:41:22.522Z,47.15
2024-03-02T17:44:24.615Z,45.92
2024-03-02T17:47:26.691Z,46.95
2024-03-02T17:50:30.326Z,50.60
2024-03-02T17:53:32.386Z,47.67
2024-03-02T17:56:34.619Z,50.17
2024-03-02T17:59:36.622Z,49.13
2024-03-02T18:02:38.753Z,50.38
2024-03-02T18:05:40.793Z,50.47
2024-03-02T18:08:43.196Z,52.80
2024-03-02T18:14:47.572Z,57.05
2024-03-02T18:17:49.533Z,54.20
2024-03-02T18:20:51.617Z,53.17
2024-03-02T18:23:53.692Z,52.83
2024-03-02T18:26:56.158Z,54.33
2024-03-02T18:33:00.289Z,57.22
2024-03-02T18:36:02.547Z,54.17
2024-03-02T18:39:04.602Z,55.05
2024-03-02T18:42:06.739Z,55.75
2024-03-02T18:45:08.924Z,54.33
2024-03-02T18:51:13.422Z,58.63
2024-03-02T18:54:15.506Z,56.95
2024-03-02T18:57:17.679Z,55.83
2024-03-02T19:00:20.152Z,60.10
2024-03-02T19:06:24.142Z,62.05
2024-03-02T19:09:26.143Z,60.55
2024-03-02T19:12:28.178Z,62.13
2024-03-02T19:15:30.378Z,63.50
2024-03-02T19:18:32.513Z,59.60
2024-03-02T19:21:34.534Z,62.90
2024-03-02T19:24:38.365Z,61.42
2024-03-02T19:30:56.827Z,66.13
2024-03-02T19:33:59.683Z,64.50
2024-03-02T19:37:02.560Z,63.58
2024-03-02T19:40:07.027Z,64.97
2024-03-02T19:43:09.620Z,65.78
2024-03-02T19:46:12.659Z,65.80
2024-03-02T19:49:15.927Z,64.85
2024-03-02T19:52:18.186Z,66.45
2024-03-02T19:55:22.956Z,70.75
2024-03-02T19:58:25.172Z,69.43
2024-03-02T20:01:27.764Z,72.68
2024-03-02T20:04:29.777Z,103.05
2024-03-02T20:07:32.189Z,70.63
2024-03-02T20:10:34.870Z,64.40
2024-03-02T20:13:37.157Z,77.47
2024-03-02T20:19:45.482Z,67.22
2024-03-02T20:22:52.382Z,80.75
2024-03-02T20:26:00.949Z,57.55
2024-03-02T20:29:03.258Z,59.03
2024-03-02T20:32:05.808Z,55.33
2024-03-02T20:35:15.632Z,55.75
2024-03-02T20:38:18.159Z,56.33
2024-03-02T20:44:26.901Z,59.17
2024-03-02T20:47:29.612Z,57.75
2024-03-02T20:50:34.360Z,56.72
2024-03-02T20:53:37.103Z,56.90
2024-03-02T20:56:39.242Z,57.03
2024-03-02T20:59:42.779Z,57.33
2024-03-02T21:02:46.026Z,57.47
2024-03-02T21:05:48.600Z,59.20
2024-03-02T21:11:52.931Z,63.72
2024-03-02T21:14:55.396Z,62.85
2024-03-02T21:17:57.625Z,62.92
2024-03-02T21:20:59.984Z,61.63
2024-03-02T21:24:02.622Z,60.92
2024-03-02T21:27:06.739Z,63.63
2024-03-02T21:30:11.158Z,67.10
2024-03-02T21:33:14.764Z,90.10
2024-03-02T21:36:19.263Z,97.65
2024-03-02T21:39:32.034Z,126.30
2024-03-02T21:42:43.609Z,67.85
2024-03-02T21:45:47.138Z,78.18
2024-03-02T21:48:50.928Z,63.80
2024-03-02T21:51:55.792Z,63.03
2024-03-02T21:54:59.727Z,62.22
2024-03-02T21:58:06.376Z,60.70
2024-03-02T22:01:14.758Z,59.60
2024-03-02T22:04:18.300Z,58.20
2024-03-02T22:07:20.527Z,58.90
2024-03-02T22:10:23.809Z,62.53
2024-03-02T22:13:27.153Z,59.42
2024-03-02T22:16:29.366Z,58.17
2024-03-02T22:19:35.828Z,58.30
2024-03-02T22:22:39.131Z,58.95
2024-03-02T22:28:44.316Z,65.60
2024-03-02T22:34:48.255Z,63.95
2024-03-02T22:37:50.472Z,62.80
2024-03-02T22:40:52.434Z,63.40
2024-03-02T22:43:54.494Z,66.03
2024-03-02T22:46:56.741Z,64.40
2024-03-02T22:49:59.248Z,63.60
2024-03-02T22:53:01.329Z,65.45
2024-03-02T22:56:04.525Z,62.60
2024-03-02T22:59:06.816Z,63.80
2024-03-02T23:02:09.097Z,63.10
2024-03-02T23:05:11.528Z,64.10
2024-03-02T23:08:13.804Z,63.40
2024-03-02T23:11:16.051Z,63.40
2024-03-02T23:14:18.703Z,63.75
2024-03-02T23:17:20.889Z,66.18
2024-03-02T23:20:23.394Z,64.43
2024-03-02T23:23:25.605Z,68.07
2024-03-02T23:26:27.785Z,66.20
2024-03-02T23:29:30.206Z,69.82
2024-03-02T23:32:32.401Z,67.70
2024-03-02T23:35:34.715Z,68.82
2024-03-02T23:38:36.938Z,69.35
2024-03-02T23:41:39.125Z,74.97
2024-03-02T23:44:41.241Z,79.85
2024-03-02T23:47:43.639Z,99.28
2024-03-02T23:50:46.079Z,128.70
2024-03-02T23:53:48.223Z,103.18
2024-03-02T23:56:50.448Z,66.53
2024-03-02T23:59:52.875Z,62.58
